Peru, Indiana
Current Conditions -  °F | °C
As of 6:58 AM on Friday 28 Nov 2014 (Local Time) from KGUS Reporting Station
Overcast Overcast  
Wind Chill: 21°   Ceiling: 8500
Heat Index: 21°   Visibility: 10mi
Dew Point: 21°   Wind: 3mph
Humidity: 98%   Direction: 170°S
Pressure: 30.34"   Gusts: NA
Location:  40.75°N, 86.07°W
Report Text: KGUS 281158Z AUTO 17003KT 10SM OVC085 M06/M06 A3034 RMK AO2 SLPNO T10591062 11047 21065
Loading
Personal Weather Stations






























Interactive Weather Map New forecast layout! Learn more

10-Day Weather Forecast

Advertisements
Track Severe Weather on mobile